Time;durP1;ratioP1;P1;durP2;ratioP2;P2;SDS_P1;SDS_P2;PMS_P1;PMS_P2;Temp;Humidity;BMP_temperature;BMP_pressure;BME280_temperature;BME280_humidity;BME280_pressure;Samples;Min_cycle;Max_cycle;Signal;HPM_P1;HPM_P2
2022/05/15 00:00:57;;;;;;;;;;;24.70;40.70;;;;;;1549964;76;1644;-68
2022/05/15 00:02:59;;;;;;;;;;;24.70;40.70;;;;;;1552355;76;1941;-68
2022/05/15 00:05:01;;;;;;;;;;;24.70;40.70;;;;;;1552747;76;684;-68
2022/05/15 00:07:03;;;;;;;;;;;24.60;40.60;;;;;;1551578;76;697;-69
2022/05/15 00:09:05;;;;;;;;;;;24.80;40.70;;;;;;1555721;76;639;-69
2022/05/15 00:11:07;;;;;;;;;;;24.70;40.70;;;;;;1554646;76;1818;-68
2022/05/15 00:13:09;;;;;;;;;;;24.70;40.70;;;;;;1554996;75;1121;-68
2022/05/15 00:15:11;;;;;;;;;;;24.80;40.70;;;;;;1552394;76;566;-68
2022/05/15 00:17:13;;;;;;;;;;;24.70;40.60;;;;;;1552524;76;668;-67
2022/05/15 00:19:15;;;;;;;;;;;24.80;40.60;;;;;;1555574;76;682;-68
2022/05/15 00:21:17;;;;;;;;;;;24.70;40.60;;;;;;1552637;76;544;-68
2022/05/15 00:23:20;;;;;;;;;;;24.70;40.50;;;;;;1552761;75;1951;-70
2022/05/15 00:25:22;;;;;;;;;;;24.70;40.50;;;;;;1552324;76;1565;-69
2022/05/15 00:27:23;;;;;;;;;;;24.80;40.50;;;;;;1558170;76;652;-69
2022/05/15 00:29:25;;;;;;;;;;;24.80;40.50;;;;;;1559940;76;610;-68
2022/05/15 00:31:27;;;;;;;;;;;24.80;40.40;;;;;;1559735;76;680;-67
2022/05/15 00:33:29;;;;;;;;;;;24.80;40.40;;;;;;1555214;75;1139;-67
2022/05/15 00:35:33;;;;;;;;;;;24.80;40.40;;;;;;1552782;76;657;-67
2022/05/15 00:37:35;;;;;;;;;;;24.80;40.30;;;;;;1552935;76;630;-68
2022/05/15 00:39:37;;;;;;;;;;;24.70;40.30;;;;;;1555665;75;1423;-68
2022/05/15 00:41:38;;;;;;;;;;;24.70;40.30;;;;;;1555498;76;678;-68
2022/05/15 00:43:54;;;;;;;;;;;24.80;40.20;;;;;;1559658;76;1958;-68
2022/05/15 00:45:56;;;;;;;;;;;24.80;40.30;;;;;;1560526;75;730;-69
2022/05/15 00:47:57;;;;;;;;;;;24.80;40.20;;;;;;1553135;75;643;-70
2022/05/15 00:50:00;;;;;;;;;;;24.80;40.20;;;;;;1548817;76;686;-70
2022/05/15 00:52:05;;;;;;;;;;;24.80;40.20;;;;;;1552695;76;1736;-70
2022/05/15 00:54:15;;;;;;;;;;;24.80;40.30;;;;;;1549730;75;1223;-70
2022/05/15 00:56:18;;;;;;;;;;;24.80;40.50;;;;;;1550313;76;1082;-70
2022/05/15 00:58:21;;;;;;;;;;;24.80;40.50;;;;;;1561559;75;634;-70
2022/05/15 01:00:27;;;;;;;;;;;24.80;40.50;;;;;;1553154;75;860;-69
2022/05/15 01:02:29;;;;;;;;;;;24.80;40.60;;;;;;1548813;75;1227;-70
2022/05/15 01:04:31;;;;;;;;;;;24.80;40.70;;;;;;1551740;76;1943;-70
2022/05/15 01:06:35;;;;;;;;;;;24.70;40.60;;;;;;1549310;76;1401;-70
2022/05/15 01:08:37;;;;;;;;;;;24.80;40.70;;;;;;1555577;76;667;-69
2022/05/15 01:10:40;;;;;;;;;;;24.80;40.80;;;;;;1553945;76;709;-69
2022/05/15 01:12:43;;;;;;;;;;;24.80;40.90;;;;;;1546089;75;1151;-69
2022/05/15 01:14:46;;;;;;;;;;;24.80;40.80;;;;;;1554253;75;807;-70
2022/05/15 01:16:47;;;;;;;;;;;24.80;40.70;;;;;;1542479;76;728;-69
2022/05/15 01:18:49;;;;;;;;;;;24.80;40.70;;;;;;1552423;76;718;-69
2022/05/15 01:20:55;;;;;;;;;;;24.80;40.70;;;;;;1556615;75;1630;-69
2022/05/15 01:22:57;;;;;;;;;;;24.80;40.70;;;;;;1553782;75;1145;-69
2022/05/15 01:24:59;;;;;;;;;;;24.80;40.70;;;;;;1559546;76;1992;-69
2022/05/15 01:27:02;;;;;;;;;;;24.80;40.60;;;;;;1559428;75;618;-69
2022/05/15 01:29:04;;;;;;;;;;;24.80;40.60;;;;;;1556625;75;1588;-69
2022/05/15 01:31:06;;;;;;;;;;;24.80;40.60;;;;;;1561321;75;746;-68
2022/05/15 01:33:08;;;;;;;;;;;24.80;40.60;;;;;;1552353;75;1129;-68
2022/05/15 01:35:10;;;;;;;;;;;24.80;40.70;;;;;;1554040;76;1644;-69
2022/05/15 01:37:12;;;;;;;;;;;24.80;40.70;;;;;;1553589;76;693;-69
2022/05/15 01:39:14;;;;;;;;;;;24.80;40.70;;;;;;1552724;76;647;-69
2022/05/15 01:41:16;;;;;;;;;;;24.80;41.00;;;;;;1546471;75;657;-69
2022/05/15 01:43:18;;;;;;;;;;;24.80;40.90;;;;;;1551368;75;1145;-69
2022/05/15 01:45:20;;;;;;;;;;;24.80;41.00;;;;;;1552525;76;1939;-69
2022/05/15 01:47:21;;;;;;;;;;;24.80;40.90;;;;;;1552839;76;736;-69
2022/05/15 01:49:23;;;;;;;;;;;24.70;41.00;;;;;;1547196;76;1584;-69
2022/05/15 01:51:25;;;;;;;;;;;24.80;41.00;;;;;;1549037;76;710;-69
2022/05/15 01:53:27;;;;;;;;;;;24.80;40.90;;;;;;1556513;73;3117;-70
2022/05/15 01:55:29;;;;;;;;;;;24.80;41.00;;;;;;1553667;75;834;-70
2022/05/15 01:57:31;;;;;;;;;;;24.80;41.00;;;;;;1553302;76;633;-69
2022/05/15 01:59:33;;;;;;;;;;;24.80;41.00;;;;;;1554254;76;703;-69
2022/05/15 02:01:35;;;;;;;;;;;24.80;41.00;;;;;;1552541;76;674;-70
2022/05/15 02:03:36;;;;;;;;;;;24.80;41.00;;;;;;1550700;75;1936;-69
2022/05/15 02:05:38;;;;;;;;;;;24.80;41.00;;;;;;1553023;75;731;-70
2022/05/15 02:07:40;;;;;;;;;;;24.80;41.00;;;;;;1552887;75;713;-66
2022/05/15 02:09:42;;;;;;;;;;;24.80;41.10;;;;;;1556050;75;701;-69
2022/05/15 02:11:44;;;;;;;;;;;24.80;41.00;;;;;;1561735;75;689;-69
2022/05/15 02:13:46;;;;;;;;;;;24.80;41.10;;;;;;1552466;76;1133;-70
2022/05/15 02:15:48;;;;;;;;;;;24.80;41.10;;;;;;1552737;76;541;-69
2022/05/15 02:17:49;;;;;;;;;;;24.80;41.10;;;;;;1549537;76;1637;-69
2022/05/15 02:19:51;;;;;;;;;;;24.80;41.00;;;;;;1552820;75;673;-69
2022/05/15 02:21:53;;;;;;;;;;;24.80;41.10;;;;;;1552333;75;706;-68
2022/05/15 02:23:57;;;;;;;;;;;24.80;40.90;;;;;;1548879;75;1931;-69
2022/05/15 02:25:58;;;;;;;;;;;24.80;41.00;;;;;;1550942;76;609;-68
2022/05/15 02:28:00;;;;;;;;;;;24.80;41.10;;;;;;1550165;76;669;-69
2022/05/15 02:30:03;;;;;;;;;;;24.80;41.10;;;;;;1552878;76;733;-69
2022/05/15 02:32:05;;;;;;;;;;;24.80;41.00;;;;;;1552456;76;1639;-70
2022/05/15 02:34:07;;;;;;;;;;;24.80;41.10;;;;;;1556631;76;1264;-68
2022/05/15 02:36:09;;;;;;;;;;;24.80;41.00;;;;;;1555346;75;712;-68
2022/05/15 02:38:11;;;;;;;;;;;24.80;41.00;;;;;;1550483;75;667;-68
2022/05/15 02:40:13;;;;;;;;;;;24.80;41.10;;;;;;1552400;76;690;-69
2022/05/15 02:42:15;;;;;;;;;;;24.80;41.20;;;;;;1552477;75;671;-68
2022/05/15 02:44:17;;;;;;;;;;;24.80;41.30;;;;;;1549420;75;1951;-69
2022/05/15 02:46:19;;;;;;;;;;;24.80;41.30;;;;;;1549162;75;1528;-68
2022/05/15 02:53:00;;;;;;;;;;;24.80;41.40;;;;;;1547993;76;1653;-68
2022/05/15 02:55:02;;;;;;;;;;;24.70;41.40;;;;;;1554875;75;792;-68
2022/05/15 02:57:05;;;;;;;;;;;24.70;41.50;;;;;;1558934;76;728;-67
2022/05/15 02:59:06;;;;;;;;;;;24.80;41.40;;;;;;1551395;76;1648;-67
2022/05/15 03:01:08;;;;;;;;;;;24.80;41.50;;;;;;1550414;76;797;-68
2022/05/15 03:03:10;;;;;;;;;;;24.80;41.40;;;;;;1543413;75;1146;-66
2022/05/15 03:05:12;;;;;;;;;;;24.80;41.40;;;;;;1553772;75;1912;-68
2022/05/15 03:07:14;;;;;;;;;;;24.80;41.50;;;;;;1550802;75;764;-67
2022/05/15 03:09:16;;;;;;;;;;;24.80;41.40;;;;;;1552782;76;692;-68
2022/05/15 03:11:18;;;;;;;;;;;24.80;41.40;;;;;;1552536;75;709;-67
2022/05/15 03:13:20;;;;;;;;;;;24.80;41.40;;;;;;1549960;75;1595;-68
2022/05/15 03:15:22;;;;;;;;;;;24.80;41.40;;;;;;1543189;76;647;-67
2022/05/15 03:17:24;;;;;;;;;;;24.80;41.40;;;;;;1546739;76;806;-67
2022/05/15 03:19:26;;;;;;;;;;;24.80;41.50;;;;;;1552579;75;807;-68
2022/05/15 03:21:31;;;;;;;;;;;24.80;41.50;;;;;;1561232;75;569;-68
2022/05/15 03:23:33;;;;;;;;;;;24.80;41.50;;;;;;1552839;76;1131;-68
2022/05/15 03:25:35;;;;;;;;;;;24.80;41.50;;;;;;1552130;76;1917;-68
2022/05/15 03:27:37;;;;;;;;;;;24.80;41.50;;;;;;1552824;75;1625;-68
2022/05/15 03:29:38;;;;;;;;;;;24.80;41.50;;;;;;1557062;75;679;-67
2022/05/15 03:31:40;;;;;;;;;;;24.80;41.60;;;;;;1556857;75;679;-67
2022/05/15 03:33:42;;;;;;;;;;;24.80;41.50;;;;;;1553249;76;1129;-68
2022/05/15 03:35:44;;;;;;;;;;;24.80;41.50;;;;;;1552518;76;743;-67
2022/05/15 03:37:46;;;;;;;;;;;24.80;41.50;;;;;;1552679;76;759;-67
2022/05/15 03:39:48;;;;;;;;;;;24.80;41.40;;;;;;1552760;76;730;-68
2022/05/15 03:41:50;;;;;;;;;;;24.80;41.50;;;;;;1557613;75;1595;-69
2022/05/15 03:43:52;;;;;;;;;;;24.80;41.50;;;;;;1552408;76;1134;-69
2022/05/15 03:45:53;;;;;;;;;;;24.80;41.50;;;;;;1552778;76;1935;-69
2022/05/15 03:47:55;;;;;;;;;;;24.80;41.60;;;;;;1552824;76;704;-70
2022/05/15 03:50:04;;;;;;;;;;;24.80;41.60;;;;;;1550031;76;715;-69
2022/05/15 03:52:07;;;;;;;;;;;24.90;41.70;;;;;;1552546;76;677;-69
2022/05/15 03:54:09;;;;;;;;;;;24.80;41.60;;;;;;1549387;76;1135;-68
2022/05/15 03:56:11;;;;;;;;;;;24.80;41.70;;;;;;1542054;76;1591;-68
2022/05/15 03:58:13;;;;;;;;;;;24.80;41.60;;;;;;1550205;76;656;-67
2022/05/15 04:00:15;;;;;;;;;;;24.80;41.70;;;;;;1552831;76;627;-68
2022/05/15 04:02:17;;;;;;;;;;;24.80;41.60;;;;;;1552347;76;617;-67
2022/05/15 04:04:19;;;;;;;;;;;24.80;41.60;;;;;;1552640;75;1933;-67
2022/05/15 04:06:21;;;;;;;;;;;24.80;41.60;;;;;;1552831;76;727;-67
2022/05/15 04:08:23;;;;;;;;;;;24.80;41.70;;;;;;1552601;75;704;-66
2022/05/15 04:10:25;;;;;;;;;;;24.80;41.70;;;;;;1552667;75;1391;-67
2022/05/15 04:12:27;;;;;;;;;;;24.80;41.70;;;;;;1557093;75;668;-68
2022/05/15 04:14:29;;;;;;;;;;;24.80;41.70;;;;;;1552994;76;1161;-68
2022/05/15 04:16:31;;;;;;;;;;;24.80;41.80;;;;;;1553578;76;528;-68
2022/05/15 04:18:33;;;;;;;;;;;24.80;41.70;;;;;;1552736;76;654;-64
2022/05/15 04:20:35;;;;;;;;;;;24.80;41.60;;;;;;1552411;76;674;-60
2022/05/15 04:22:37;;;;;;;;;;;24.80;41.60;;;;;;1552772;76;733;-63
2022/05/15 04:24:39;;;;;;;;;;;24.90;41.60;;;;;;1548211;75;1933;-63
2022/05/15 04:26:41;;;;;;;;;;;24.80;41.50;;;;;;1553010;75;727;-62
2022/05/15 04:28:43;;;;;;;;;;;24.80;41.50;;;;;;1552717;76;656;-64
2022/05/15 04:30:45;;;;;;;;;;;24.80;41.60;;;;;;1552532;76;760;-64
2022/05/15 04:32:47;;;;;;;;;;;24.70;41.50;;;;;;1552647;76;687;-62
2022/05/15 04:34:49;;;;;;;;;;;24.70;41.50;;;;;;1556760;76;1184;-61
2022/05/15 04:36:50;;;;;;;;;;;24.80;41.50;;;;;;1552868;75;727;-61
2022/05/15 04:38:52;;;;;;;;;;;24.60;41.40;;;;;;1561915;75;1530;-63
2022/05/15 04:40:54;;;;;;;;;;;24.70;41.70;;;;;;1551412;75;734;-62
2022/05/15 04:42:56;;;;;;;;;;;24.70;41.60;;;;;;1549806;75;1153;-63
2022/05/15 04:44:58;;;;;;;;;;;24.70;41.70;;;;;;1555842;76;1939;-63
2022/05/15 04:47:00;;;;;;;;;;;24.70;41.80;;;;;;1552808;76;660;-63
2022/05/15 04:49:02;;;;;;;;;;;24.70;41.80;;;;;;1556085;75;549;-62
2022/05/15 04:51:04;;;;;;;;;;;24.70;41.80;;;;;;1554265;75;782;-64
2022/05/15 04:53:06;;;;;;;;;;;24.60;41.70;;;;;;1557163;75;1173;-64
2022/05/15 04:55:08;;;;;;;;;;;24.70;41.80;;;;;;1553113;75;777;-62
2022/05/15 04:57:10;;;;;;;;;;;24.70;41.70;;;;;;1549952;75;701;-62
2022/05/15 04:59:11;;;;;;;;;;;24.70;41.80;;;;;;1559319;75;782;-62
2022/05/15 05:01:13;;;;;;;;;;;24.70;41.90;;;;;;1556730;75;711;-64
2022/05/15 05:03:15;;;;;;;;;;;24.60;41.90;;;;;;1556028;75;1187;-64
2022/05/15 05:05:17;;;;;;;;;;;24.60;41.90;;;;;;1554037;75;1934;-62
2022/05/15 05:07:19;;;;;;;;;;;24.70;42.10;;;;;;1554989;75;698;-63
2022/05/15 05:09:21;;;;;;;;;;;24.70;42.00;;;;;;1556478;75;700;-64
2022/05/15 05:11:23;;;;;;;;;;;24.70;42.10;;;;;;1557475;75;582;-62
2022/05/15 05:13:25;;;;;;;;;;;24.70;42.10;;;;;;1560994;75;1147;-64
2022/05/15 05:15:27;;;;;;;;;;;24.70;42.00;;;;;;1556375;75;705;-63
2022/05/15 05:17:28;;;;;;;;;;;24.70;42.00;;;;;;1560212;75;697;-63
2022/05/15 05:19:30;;;;;;;;;;;24.70;42.00;;;;;;1551682;75;1570;-63
2022/05/15 05:21:32;;;;;;;;;;;24.80;42.10;;;;;;1552150;75;706;-64
2022/05/15 05:23:34;;;;;;;;;;;24.70;42.10;;;;;;1552313;75;1142;-64
2022/05/15 05:25:36;;;;;;;;;;;24.70;42.10;;;;;;1551148;75;1927;-64
2022/05/15 05:27:38;;;;;;;;;;;24.70;42.30;;;;;;1558323;75;666;-66
2022/05/15 05:29:40;;;;;;;;;;;24.70;42.30;;;;;;1551079;75;702;-62
2022/05/15 05:31:42;;;;;;;;;;;24.70;42.20;;;;;;1556432;75;703;-63
2022/05/15 05:33:44;;;;;;;;;;;24.80;42.30;;;;;;1554298;75;1630;-63
2022/05/15 05:35:46;;;;;;;;;;;24.70;42.50;;;;;;1557975;75;640;-66
2022/05/15 05:37:47;;;;;;;;;;;24.70;42.40;;;;;;1554629;75;745;-63
2022/05/15 05:39:50;;;;;;;;;;;24.70;42.40;;;;;;1556688;75;694;-63
2022/05/15 05:41:52;;;;;;;;;;;24.70;42.40;;;;;;1556751;75;674;-61
2022/05/15 05:43:54;;;;;;;;;;;24.70;42.40;;;;;;1554545;75;1143;-63
2022/05/15 05:45:56;;;;;;;;;;;24.70;42.50;;;;;;1555930;75;1925;-63
2022/05/15 05:47:58;;;;;;;;;;;24.80;42.60;;;;;;1556457;75;1552;-63
2022/05/15 05:49:59;;;;;;;;;;;24.70;42.60;;;;;;1549774;75;671;-62
2022/05/15 05:52:01;;;;;;;;;;;24.70;42.60;;;;;;1552477;75;727;-62
2022/05/15 05:54:03;;;;;;;;;;;24.80;42.60;;;;;;1559352;75;1147;-64
2022/05/15 05:56:05;;;;;;;;;;;24.80;42.60;;;;;;1552760;75;776;-64
2022/05/15 05:58:07;;;;;;;;;;;24.80;42.60;;;;;;1549056;75;681;-62
2022/05/15 06:00:10;;;;;;;;;;;24.80;42.80;;;;;;1551960;75;719;-63
2022/05/15 06:02:12;;;;;;;;;;;24.80;42.80;;;;;;1552099;75;1569;-67
2022/05/15 06:06:33;;;;;;;;;;;24.80;42.90;;;;;;1549675;75;1911;-69
2022/05/15 06:08:35;;;;;;;;;;;25.00;43.10;;;;;;1557561;75;658;-69
2022/05/15 06:10:37;;;;;;;;;;;25.00;42.70;;;;;;1548170;75;805;-69
2022/05/15 06:12:44;;;;;;;;;;;24.80;42.70;;;;;;1561167;75;735;-68
2022/05/15 06:14:43;;;;;;;;;;;24.90;42.70;;;;;;1551469;75;1647;-70
2022/05/15 06:16:44;;;;;;;;;;;24.80;42.60;;;;;;1552861;75;1519;-70
2022/05/15 06:18:46;;;;;;;;;;;24.80;42.60;;;;;;1554026;75;680;-68
2022/05/15 06:20:48;;;;;;;;;;;24.80;42.70;;;;;;1551982;75;765;-69
2022/05/15 06:22:50;;;;;;;;;;;24.80;42.70;;;;;;1554558;75;684;-69
2022/05/15 06:24:52;;;;;;;;;;;24.80;42.70;;;;;;1552861;75;680;-69
2022/05/15 06:26:54;;;;;;;;;;;24.70;42.70;;;;;;1552264;75;1938;-69
2022/05/15 06:28:56;;;;;;;;;;;24.70;42.80;;;;;;1551941;75;818;-70
2022/05/15 06:30:58;;;;;;;;;;;24.70;42.90;;;;;;1552369;75;1591;-69
2022/05/15 06:33:00;;;;;;;;;;;24.80;42.90;;;;;;1550652;75;1149;-68
2022/05/15 06:35:02;;;;;;;;;;;24.70;43.00;;;;;;1553598;75;766;-67
2022/05/15 06:37:04;;;;;;;;;;;24.70;43.10;;;;;;1548235;75;705;-67
2022/05/15 06:39:05;;;;;;;;;;;24.80;43.10;;;;;;1553597;75;715;-67
2022/05/15 06:41:08;;;;;;;;;;;24.70;43.10;;;;;;1552879;75;719;-68
2022/05/15 06:43:10;;;;;;;;;;;24.70;43.10;;;;;;1551614;75;1143;-68
2022/05/15 06:45:12;;;;;;;;;;;24.80;43.10;;;;;;1550541;75;1923;-69
2022/05/15 06:47:14;;;;;;;;;;;24.70;43.10;;;;;;1549723;75;714;-68
2022/05/15 06:49:15;;;;;;;;;;;24.70;43.10;;;;;;1553648;75;739;-68
2022/05/15 06:51:17;;;;;;;;;;;24.70;43.20;;;;;;1552218;75;723;-69
2022/05/15 06:53:19;;;;;;;;;;;24.70;43.10;;;;;;1553398;75;1098;-68
2022/05/15 06:55:21;;;;;;;;;;;24.60;43.10;;;;;;1553117;75;675;-68
2022/05/15 06:57:29;;;;;;;;;;;24.70;43.20;;;;;;1552380;75;785;-69
2022/05/15 06:59:32;;;;;;;;;;;24.80;43.30;;;;;;1554425;75;1699;-68
2022/05/15 07:01:34;;;;;;;;;;;24.70;43.30;;;;;;1552884;75;823;-69
2022/05/15 07:03:37;;;;;;;;;;;24.80;43.40;;;;;;1552875;75;1162;-71
2022/05/15 07:05:40;;;;;;;;;;;24.70;43.40;;;;;;1552800;75;1923;-71
2022/05/15 07:07:43;;;;;;;;;;;24.70;43.30;;;;;;1553757;75;758;-68
2022/05/15 07:09:45;;;;;;;;;;;24.70;43.30;;;;;;1550957;75;676;-69
2022/05/15 07:11:47;;;;;;;;;;;24.70;43.40;;;;;;1553694;75;1560;-70
2022/05/15 07:13:49;;;;;;;;;;;24.70;43.40;;;;;;1555741;75;1190;-66
2022/05/15 07:15:51;;;;;;;;;;;24.80;43.40;;;;;;1556297;75;654;-70
2022/05/15 07:17:52;;;;;;;;;;;24.90;43.40;;;;;;1552414;75;684;-68
2022/05/15 07:19:55;;;;;;;;;;;25.00;43.40;;;;;;1553300;75;677;-63
2022/05/15 07:21:57;;;;;;;;;;;25.00;43.40;;;;;;1551167;75;729;-67
2022/05/15 07:23:58;;;;;;;;;;;25.10;43.10;;;;;;1552757;75;1082;-63
2022/05/15 07:26:00;;;;;;;;;;;25.10;42.30;;;;;;1555021;75;1946;-64
2022/05/15 07:28:02;;;;;;;;;;;25.20;42.50;;;;;;1551906;75;571;-64
2022/05/15 07:30:04;;;;;;;;;;;25.20;42.30;;;;;;1553791;75;711;-66
2022/05/15 07:32:07;;;;;;;;;;;25.20;41.40;;;;;;1552683;76;697;-69
2022/05/15 07:34:08;;;;;;;;;;;25.30;41.90;;;;;;1555701;76;1142;-67
2022/05/15 07:36:10;;;;;;;;;;;25.30;41.80;;;;;;1552737;76;657;-65
2022/05/15 07:38:12;;;;;;;;;;;25.40;41.50;;;;;;1552590;75;680;-66
2022/05/15 07:40:14;;;;;;;;;;;25.40;40.90;;;;;;1542330;75;1635;-66
2022/05/15 07:42:16;;;;;;;;;;;25.40;41.10;;;;;;1555855;75;634;-65
2022/05/15 07:44:18;;;;;;;;;;;25.50;40.90;;;;;;1548759;75;1151;-65
2022/05/15 07:46:21;;;;;;;;;;;25.50;40.70;;;;;;1552725;76;1954;-65
2022/05/15 07:48:23;;;;;;;;;;;25.40;40.50;;;;;;1552717;76;696;-63
2022/05/15 07:50:24;;;;;;;;;;;25.60;40.20;;;;;;1552457;76;665;-65
2022/05/15 07:52:26;;;;;;;;;;;25.40;40.50;;;;;;1552554;76;681;-65
2022/05/15 07:54:28;;;;;;;;;;;25.50;39.90;;;;;;1554588;71;2055;-70
2022/05/15 07:56:30;;;;;;;;;;;25.50;40.60;;;;;;1551422;76;624;-70
2022/05/15 07:58:32;;;;;;;;;;;25.60;40.50;;;;;;1550573;76;663;-70
2022/05/15 08:00:34;;;;;;;;;;;25.50;40.40;;;;;;1552655;76;653;-70
2022/05/15 08:02:37;;;;;;;;;;;25.60;40.10;;;;;;1551753;75;746;-70
2022/05/15 08:09:18;;;;;;;;;;;25.60;40.20;;;;;;1555717;75;1927;-70
2022/05/15 08:11:20;;;;;;;;;;;25.60;40.10;;;;;;1550314;75;680;-70
2022/05/15 08:13:25;;;;;;;;;;;25.60;39.90;;;;;;1554938;75;1195;-70
2022/05/15 08:15:27;;;;;;;;;;;25.70;39.90;;;;;;1564922;75;694;-70
2022/05/15 08:17:29;;;;;;;;;;;25.80;39.80;;;;;;1561661;75;661;-70
2022/05/15 08:24:10;;;;;;;;;;;25.80;39.20;;;;;;1556265;75;1646;-70
2022/05/15 08:26:12;;;;;;;;;;;25.80;39.00;;;;;;1544648;75;1949;-70
2022/05/15 08:28:14;;;;;;;;;;;25.80;39.50;;;;;;1544461;75;791;-70
2022/05/15 08:30:17;;;;;;;;;;;25.80;38.60;;;;;;1554968;75;694;-70
2022/05/15 08:32:19;;;;;;;;;;;25.70;38.80;;;;;;1564896;75;662;-70
2022/05/15 08:34:21;;;;;;;;;;;25.70;38.70;;;;;;1548505;75;1132;-70
2022/05/15 08:36:23;;;;;;;;;;;25.70;37.80;;;;;;1557346;75;1581;-70
2022/05/15 08:38:25;;;;;;;;;;;25.70;38.70;;;;;;1547714;75;795;-69
2022/05/15 08:40:28;;;;;;;;;;;25.70;38.40;;;;;;1558885;75;707;-70
2022/05/15 08:42:38;;;;;;;;;;;25.70;37.40;;;;;;1560723;75;654;-70
2022/05/15 08:44:41;;;;;;;;;;;25.70;38.10;;;;;;1560401;75;1180;-69
2022/05/15 08:46:51;;;;;;;;;;;25.60;36.50;;;;;;1551076;75;1932;-70
2022/05/15 08:48:53;;;;;;;;;;;25.60;37.80;;;;;;1543879;75;682;-70
2022/05/15 08:50:55;;;;;;;;;;;25.60;37.80;;;;;;1553275;75;1462;-71
2022/05/15 08:52:58;;;;;;;;;;;25.60;36.20;;;;;;1544453;75;655;-71
2022/05/15 08:55:06;;;;;;;;;;;25.60;37.10;;;;;;1551033;75;1137;-72
2022/05/15 08:57:12;;;;;;;;;;;25.60;37.30;;;;;;1540512;75;565;-71
2022/05/15 08:59:16;;;;;;;;;;;25.60;37.20;;;;;;1553517;75;1740;-71
2022/05/15 09:01:21;;;;;;;;;;;25.60;36.50;;;;;;1542019;75;1568;-71
2022/05/15 09:03:27;;;;;;;;;;;25.50;36.80;;;;;;1540947;75;1194;-71
2022/05/15 09:05:29;;;;;;;;;;;25.60;36.60;;;;;;1537826;75;1402;-71
2022/05/15 09:07:47;;;;;;;;;;;25.50;34.50;;;;;;1546680;75;1917;-71
2022/05/15 09:09:51;;;;;;;;;;;25.60;35.70;;;;;;1551886;75;726;-71
2022/05/15 09:12:01;;;;;;;;;;;25.50;36.10;;;;;;1545063;75;700;-71
2022/05/15 09:14:07;;;;;;;;;;;25.60;36.40;;;;;;1536946;75;1179;-71
2022/05/15 09:16:09;;;;;;;;;;;25.40;34.20;;;;;;1538427;75;1948;-71
2022/05/15 09:18:13;;;;;;;;;;;25.40;34.50;;;;;;1548591;75;1898;-71
2022/05/15 09:20:28;;;;;;;;;;;25.40;35.30;;;;;;1541426;75;1632;-71
2022/05/15 09:22:35;;;;;;;;;;;25.40;35.60;;;;;;1541810;75;655;-71
2022/05/15 09:24:38;;;;;;;;;;;25.40;34.90;;;;;;1548333;75;1195;-71
2022/05/15 09:26:44;;;;;;;;;;;25.30;33.60;;;;;;1542009;75;1938;-70
2022/05/15 09:28:47;;;;;;;;;;;25.30;35.10;;;;;;1557013;75;729;-71
2022/05/15 09:30:49;;;;;;;;;;;25.30;34.40;;;;;;1551104;75;747;-70
2022/05/15 09:32:53;;;;;;;;;;;25.40;34.30;;;;;;1540616;75;1568;-71
2022/05/15 09:34:56;;;;;;;;;;;25.40;33.20;;;;;;1553768;75;1172;-71
2022/05/15 09:39:20;;;;;;;;;;;25.30;34.40;;;;;;1509738;75;918;-71
2022/05/15 09:43:52;;;;;;;;;;;25.30;34.10;;;;;;1544845;75;1645;-71
2022/05/15 09:45:56;;;;;;;;;;;25.20;31.90;;;;;;1546455;75;748;-71
2022/05/15 09:48:00;;;;;;;;;;;25.20;34.10;;;;;;1539386;75;1942;-71
2022/05/15 09:50:02;;;;;;;;;;;25.20;33.90;;;;;;1544770;75;733;-70
2022/05/15 09:52:08;;;;;;;;;;;25.20;33.70;;;;;;1555830;75;535;-71
2022/05/15 09:54:11;;;;;;;;;;;25.20;33.50;;;;;;1544869;75;1147;-71
2022/05/15 09:56:14;;;;;;;;;;;25.20;32.20;;;;;;1538163;75;696;-71
2022/05/15 09:58:19;;;;;;;;;;;25.20;33.60;;;;;;1545793;75;2125;-72
2022/05/15 10:00:23;;;;;;;;;;;25.20;32.70;;;;;;1551920;75;673;-72
2022/05/15 10:02:29;;;;;;;;;;;25.10;33.40;;;;;;1545762;75;1575;-72
2022/05/15 10:04:40;;;;;;;;;;;25.10;33.60;;;;;;1542989;75;1146;-72
2022/05/15 10:06:49;;;;;;;;;;;25.10;33.10;;;;;;1543568;75;1944;-72
2022/05/15 10:09:09;;;;;;;;;;;25.10;33.40;;;;;;1539885;75;737;-70
2022/05/15 10:11:18;;;;;;;;;;;25.20;33.70;;;;;;1545563;75;735;-67
2022/05/15 10:13:33;;;;;;;;;;;25.20;33.40;;;;;;1553347;74;1142;-73
2022/05/15 10:15:43;;;;;;;;;;;25.30;33.50;;;;;;1541235;75;1552;-71
2022/05/15 10:17:54;;;;;;;;;;;25.20;33.70;;;;;;1545860;75;648;-70
2022/05/15 10:19:57;;;;;;;;;;;25.20;33.50;;;;;;1563218;75;686;-69
2022/05/15 10:22:10;;;;;;;;;;;25.20;33.70;;;;;;1556784;75;679;-67
2022/05/15 10:24:14;;;;;;;;;;;25.20;34.20;;;;;;1551306;75;2116;-68
2022/05/15 10:26:32;;;;;;;;;;;25.30;34.30;;;;;;1551412;75;1821;-69
2022/05/15 10:28:39;;;;;;;;;;;25.30;34.00;;;;;;1550823;75;622;-68
2022/05/15 10:30:43;;;;;;;;;;;25.10;33.90;;;;;;1549812;75;708;-71
2022/05/15 10:32:49;;;;;;;;;;;25.20;33.90;;;;;;1546422;75;693;-69
2022/05/15 10:34:51;;;;;;;;;;;25.20;34.30;;;;;;1536120;75;1592;-68
2022/05/15 10:36:57;;;;;;;;;;;25.10;32.00;;;;;;1540654;75;678;-66
2022/05/15 10:39:17;;;;;;;;;;;25.00;33.20;;;;;;1539905;75;632;-67
2022/05/15 10:41:20;;;;;;;;;;;25.10;32.80;;;;;;1541462;75;765;-68
2022/05/15 10:43:30;;;;;;;;;;;25.00;33.50;;;;;;1547706;75;1519;-68
2022/05/15 10:45:34;;;;;;;;;;;25.00;33.90;;;;;;1546775;75;1902;-68
2022/05/15 10:47:37;;;;;;;;;;;25.00;32.50;;;;;;1548967;75;1940;-68
2022/05/15 10:49:40;;;;;;;;;;;25.00;32.80;;;;;;1541666;75;718;-67
2022/05/15 10:51:47;;;;;;;;;;;25.00;33.60;;;;;;1537335;75;725;-67
2022/05/15 10:58:42;;;;;;;;;;;25.00;33.30;;;;;;1540800;75;1700;-68
2022/05/15 11:00:49;;;;;;;;;;;25.10;33.00;;;;;;1537232;75;977;-67
2022/05/15 11:03:09;;;;;;;;;;;25.00;31.60;;;;;;1533960;75;705;-68
2022/05/15 11:05:12;;;;;;;;;;;25.00;32.70;;;;;;1530847;75;1135;-67
2022/05/15 11:07:22;;;;;;;;;;;25.00;33.60;;;;;;1531618;75;1915;-67
2022/05/15 11:09:25;;;;;;;;;;;24.90;32.30;;;;;;1539077;75;710;-68
2022/05/15 11:11:38;;;;;;;;;;;24.90;33.30;;;;;;1538223;75;1898;-68
2022/05/15 11:13:42;;;;;;;;;;;24.80;32.20;;;;;;1534556;75;1913;-67
2022/05/15 11:15:45;;;;;;;;;;;24.80;33.50;;;;;;1531061;75;1004;-67
2022/05/15 11:17:49;;;;;;;;;;;24.80;33.60;;;;;;1540471;75;576;-67
2022/05/15 11:19:51;;;;;;;;;;;24.80;33.60;;;;;;1539729;75;2015;-68
2022/05/15 11:22:00;;;;;;;;;;;24.80;32.30;;;;;;1531020;75;702;-68
2022/05/15 11:24:04;;;;;;;;;;;24.80;33.80;;;;;;1530170;75;1171;-68
2022/05/15 11:26:07;;;;;;;;;;;24.80;33.00;;;;;;1542002;75;1646;-68
2022/05/15 11:28:17;;;;;;;;;;;24.80;33.90;;;;;;1528558;75;1942;-68
2022/05/15 11:30:32;;;;;;;;;;;24.70;33.70;;;;;;1535512;75;1123;-68
2022/05/15 11:32:36;;;;;;;;;;;24.80;33.60;;;;;;1528348;75;699;-68
2022/05/15 11:34:55;;;;;;;;;;;24.80;33.10;;;;;;1548862;75;1900;-68
2022/05/15 11:36:57;;;;;;;;;;;24.80;32.80;;;;;;1557798;75;830;-68
2022/05/15 11:39:01;;;;;;;;;;;24.70;33.60;;;;;;1540006;75;1574;-68
2022/05/15 11:41:03;;;;;;;;;;;24.80;33.90;;;;;;1546460;75;703;-68
2022/05/15 11:43:23;;;;;;;;;;;24.70;32.70;;;;;;1542161;75;977;-68
2022/05/15 11:45:30;;;;;;;;;;;24.80;32.80;;;;;;1533487;75;698;-68
2022/05/15 11:47:34;;;;;;;;;;;24.80;33.40;;;;;;1537042;75;1932;-68
2022/05/15 11:49:39;;;;;;;;;;;24.70;33.00;;;;;;1539451;75;666;-68
2022/05/15 11:51:42;;;;;;;;;;;24.80;33.00;;;;;;1543165;75;703;-68
2022/05/15 11:53:49;;;;;;;;;;;24.70;31.80;;;;;;1546726;75;1488;-68
2022/05/15 11:55:52;;;;;;;;;;;24.70;32.10;;;;;;1541891;75;737;-68
2022/05/15 11:57:54;;;;;;;;;;;24.70;32.80;;;;;;1540115;75;700;-68
2022/05/15 11:59:56;;;;;;;;;;;24.80;32.80;;;;;;1545105;75;736;-68
2022/05/15 12:02:06;;;;;;;;;;;24.70;32.00;;;;;;1549995;75;787;-68
2022/05/15 12:04:28;;;;;;;;;;;24.60;32.90;;;;;;1492060;75;1159;-68
2022/05/15 12:06:46;;;;;;;;;;;24.70;33.30;;;;;;1538232;75;705;-69
2022/05/15 12:08:52;;;;;;;;;;;24.70;32.40;;;;;;1535828;75;1926;-69
2022/05/15 12:10:55;;;;;;;;;;;24.70;32.90;;;;;;1537504;75;743;-68
2022/05/15 12:13:02;;;;;;;;;;;24.70;33.00;;;;;;1533891;75;768;-69
2022/05/15 12:15:09;;;;;;;;;;;24.70;33.10;;;;;;1520400;75;1730;-69
2022/05/15 12:17:30;;;;;;;;;;;24.70;33.10;;;;;;1534815;75;771;-69
2022/05/15 12:19:35;;;;;;;;;;;24.70;33.40;;;;;;1548176;75;693;-69
2022/05/15 12:21:39;;;;;;;;;;;24.70;33.50;;;;;;1537491;75;2143;-68
2022/05/15 12:24:27;;;;;;;;;;;24.70;33.50;;;;;;1537555;75;1137;-67
2022/05/15 12:25:56;;;;;;;;;;;24.70;33.70;;;;;;1522000;75;1638;-68
2022/05/15 12:30:33;;;;;;;;;;;24.70;33.90;;;;;;1528514;75;1664;-68
2022/05/15 12:32:46;;;;;;;;;;;24.80;34.20;;;;;;1537312;75;819;-68
2022/05/15 12:34:47;;;;;;;;;;;24.80;33.10;;;;;;1538746;75;1191;-68
2022/05/15 12:36:53;;;;;;;;;;;24.80;33.80;;;;;;1516218;77;1631;-69
2022/05/15 12:38:55;;;;;;;;;;;24.80;33.10;;;;;;1542043;75;707;-69
2022/05/15 12:41:03;;;;;;;;;;;24.80;33.50;;;;;;1556869;75;699;-70
2022/05/15 12:43:22;;;;;;;;;;;24.80;34.10;;;;;;1556032;75;733;-70
2022/05/15 12:45:24;;;;;;;;;;;24.70;33.30;;;;;;1561178;75;693;-70